sensor_id;sensor_type;location;lat;lon;timestamp;P1;durP1;ratioP1;P2;durP2;ratioP2
64313;SDS011;50650;48.180;11.524;2023-03-20T00:02:01;7.55;;;3.08;;
64313;SDS011;50650;48.180;11.524;2023-03-20T00:04:28;4.80;;;2.63;;
64313;SDS011;50650;48.180;11.524;2023-03-20T00:06:54;3.30;;;2.55;;
64313;SDS011;50650;48.180;11.524;2023-03-20T00:09:22;3.85;;;3.10;;
64313;SDS011;50650;48.180;11.524;2023-03-20T00:11:50;3.88;;;2.53;;
64313;SDS011;50650;48.180;11.524;2023-03-20T00:14:18;5.22;;;2.75;;
64313;SDS011;50650;48.180;11.524;2023-03-20T00:16:47;3.53;;;2.55;;
64313;SDS011;50650;48.180;11.524;2023-03-20T00:19:15;3.17;;;2.58;;
64313;SDS011;50650;48.180;11.524;2023-03-20T00:21:42;5.55;;;2.60;;
64313;SDS011;50650;48.180;11.524;2023-03-20T00:24:09;4.20;;;2.58;;
64313;SDS011;50650;48.180;11.524;2023-03-20T00:26:37;4.18;;;2.50;;
64313;SDS011;50650;48.180;11.524;2023-03-20T00:29:04;3.10;;;2.40;;
64313;SDS011;50650;48.180;11.524;2023-03-20T00:31:32;2.88;;;2.40;;
64313;SDS011;50650;48.180;11.524;2023-03-20T00:34:00;3.33;;;2.00;;
64313;SDS011;50650;48.180;11.524;2023-03-20T00:36:27;3.30;;;2.22;;
64313;SDS011;50650;48.180;11.524;2023-03-20T00:38:54;3.80;;;2.45;;
64313;SDS011;50650;48.180;11.524;2023-03-20T00:41:22;2.80;;;2.00;;
64313;SDS011;50650;48.180;11.524;2023-03-20T00:43:53;3.20;;;2.00;;
64313;SDS011;50650;48.180;11.524;2023-03-20T00:46:21;4.78;;;2.15;;
64313;SDS011;50650;48.180;11.524;2023-03-20T00:48:47;5.40;;;2.40;;
64313;SDS011;50650;48.180;11.524;2023-03-20T00:51:14;3.20;;;2.13;;
64313;SDS011;50650;48.180;11.524;2023-03-20T00:53:41;3.45;;;2.22;;
64313;SDS011;50650;48.180;11.524;2023-03-20T00:56:10;2.83;;;1.98;;
64313;SDS011;50650;48.180;11.524;2023-03-20T00:58:57;2.83;;;1.75;;
64313;SDS011;50650;48.180;11.524;2023-03-20T01:01:24;4.70;;;1.70;;
64313;SDS011;50650;48.180;11.524;2023-03-20T01:03:51;3.35;;;2.05;;
64313;SDS011;50650;48.180;11.524;2023-03-20T01:06:18;2.83;;;1.80;;
64313;SDS011;50650;48.180;11.524;2023-03-20T01:08:44;2.33;;;1.88;;
64313;SDS011;50650;48.180;11.524;2023-03-20T01:11:13;3.33;;;1.95;;
64313;SDS011;50650;48.180;11.524;2023-03-20T01:13:39;3.22;;;1.63;;
64313;SDS011;50650;48.180;11.524;2023-03-20T01:16:12;3.53;;;2.30;;
64313;SDS011;50650;48.180;11.524;2023-03-20T01:18:45;4.32;;;1.80;;
64313;SDS011;50650;48.180;11.524;2023-03-20T01:21:11;3.50;;;2.03;;
64313;SDS011;50650;48.180;11.524;2023-03-20T01:23:38;2.72;;;1.60;;
64313;SDS011;50650;48.180;11.524;2023-03-20T01:26:05;4.43;;;1.83;;
64313;SDS011;50650;48.180;11.524;2023-03-20T01:28:44;2.90;;;1.88;;
64313;SDS011;50650;48.180;11.524;2023-03-20T01:31:11;2.40;;;1.88;;
64313;SDS011;50650;48.180;11.524;2023-03-20T01:33:38;2.33;;;1.88;;
64313;SDS011;50650;48.180;11.524;2023-03-20T01:36:05;3.08;;;2.00;;
64313;SDS011;50650;48.180;11.524;2023-03-20T01:38:34;3.42;;;1.50;;
64313;SDS011;50650;48.180;11.524;2023-03-20T01:41:02;2.28;;;1.65;;
64313;SDS011;50650;48.180;11.524;2023-03-20T01:43:31;2.10;;;1.63;;
64313;SDS011;50650;48.180;11.524;2023-03-20T01:46:00;2.80;;;1.90;;
64313;SDS011;50650;48.180;11.524;2023-03-20T01:48:34;3.20;;;1.88;;
64313;SDS011;50650;48.180;11.524;2023-03-20T01:51:20;4.05;;;1.67;;
64313;SDS011;50650;48.180;11.524;2023-03-20T01:53:48;4.00;;;1.88;;
64313;SDS011;50650;48.180;11.524;2023-03-20T01:56:15;2.15;;;1.50;;
64313;SDS011;50650;48.180;11.524;2023-03-20T01:58:43;2.13;;;1.65;;
64313;SDS011;50650;48.180;11.524;2023-03-20T02:01:12;3.17;;;1.85;;
64313;SDS011;50650;48.180;11.524;2023-03-20T02:03:42;3.28;;;1.60;;
64313;SDS011;50650;48.180;11.524;2023-03-20T02:06:09;2.28;;;1.63;;
64313;SDS011;50650;48.180;11.524;2023-03-20T02:08:38;3.03;;;1.77;;
64313;SDS011;50650;48.180;11.524;2023-03-20T02:11:07;2.35;;;1.65;;
64313;SDS011;50650;48.180;11.524;2023-03-20T02:13:34;3.83;;;1.63;;
64313;SDS011;50650;48.180;11.524;2023-03-20T02:16:03;3.10;;;1.50;;
64313;SDS011;50650;48.180;11.524;2023-03-20T02:18:31;2.40;;;1.27;;
64313;SDS011;50650;48.180;11.524;2023-03-20T02:21:09;3.42;;;1.92;;
64313;SDS011;50650;48.180;11.524;2023-03-20T02:24:06;3.00;;;1.48;;
64313;SDS011;50650;48.180;11.524;2023-03-20T02:26:53;1.73;;;1.40;;
64313;SDS011;50650;48.180;11.524;2023-03-20T02:29:43;2.30;;;1.60;;
64313;SDS011;50650;48.180;11.524;2023-03-20T02:32:23;2.58;;;1.63;;
64313;SDS011;50650;48.180;11.524;2023-03-20T02:38:13;2.75;;;1.35;;
64313;SDS011;50650;48.180;11.524;2023-03-20T02:40:48;2.05;;;1.25;;
64313;SDS011;50650;48.180;11.524;2023-03-20T02:43:19;2.13;;;1.30;;
64313;SDS011;50650;48.180;11.524;2023-03-20T02:45:51;1.70;;;1.38;;
64313;SDS011;50650;48.180;11.524;2023-03-20T02:48:24;2.13;;;1.45;;
64313;SDS011;50650;48.180;11.524;2023-03-20T02:50:55;1.98;;;1.50;;
64313;SDS011;50650;48.180;11.524;2023-03-20T02:53:29;3.88;;;1.40;;
64313;SDS011;50650;48.180;11.524;2023-03-20T02:56:01;4.10;;;1.60;;
64313;SDS011;50650;48.180;11.524;2023-03-20T02:58:33;3.33;;;1.50;;
64313;SDS011;50650;48.180;11.524;2023-03-20T03:01:05;3.40;;;1.90;;
64313;SDS011;50650;48.180;11.524;2023-03-20T03:03:36;2.40;;;1.45;;
64313;SDS011;50650;48.180;11.524;2023-03-20T03:06:05;1.98;;;1.30;;
64313;SDS011;50650;48.180;11.524;2023-03-20T03:08:36;2.83;;;1.42;;
64313;SDS011;50650;48.180;11.524;2023-03-20T03:11:06;2.85;;;1.52;;
64313;SDS011;50650;48.180;11.524;2023-03-20T03:13:34;2.15;;;1.55;;
64313;SDS011;50650;48.180;11.524;2023-03-20T03:16:04;2.83;;;1.60;;
64313;SDS011;50650;48.180;11.524;2023-03-20T03:18:33;5.03;;;1.40;;
64313;SDS011;50650;48.180;11.524;2023-03-20T03:21:01;3.38;;;1.50;;
64313;SDS011;50650;48.180;11.524;2023-03-20T03:23:29;3.88;;;2.13;;
64313;SDS011;50650;48.180;11.524;2023-03-20T03:25:59;3.58;;;1.80;;
64313;SDS011;50650;48.180;11.524;2023-03-20T03:28:28;3.78;;;2.00;;
64313;SDS011;50650;48.180;11.524;2023-03-20T03:31:01;3.47;;;1.67;;
64313;SDS011;50650;48.180;11.524;2023-03-20T03:33:29;2.80;;;1.63;;
64313;SDS011;50650;48.180;11.524;2023-03-20T03:35:59;2.88;;;1.27;;
64313;SDS011;50650;48.180;11.524;2023-03-20T03:38:32;2.35;;;1.48;;
64313;SDS011;50650;48.180;11.524;2023-03-20T03:41:09;2.30;;;1.30;;
64313;SDS011;50650;48.180;11.524;2023-03-20T03:43:44;2.45;;;1.40;;
64313;SDS011;50650;48.180;11.524;2023-03-20T03:46:15;2.00;;;1.48;;
64313;SDS011;50650;48.180;11.524;2023-03-20T03:48:46;1.98;;;1.13;;
64313;SDS011;50650;48.180;11.524;2023-03-20T03:51:15;2.85;;;1.50;;
64313;SDS011;50650;48.180;11.524;2023-03-20T03:53:44;2.08;;;1.40;;
64313;SDS011;50650;48.180;11.524;2023-03-20T03:56:15;1.73;;;1.13;;
64313;SDS011;50650;48.180;11.524;2023-03-20T03:58:46;1.75;;;1.20;;
64313;SDS011;50650;48.180;11.524;2023-03-20T04:01:15;2.03;;;1.30;;
64313;SDS011;50650;48.180;11.524;2023-03-20T04:03:44;1.67;;;1.23;;
64313;SDS011;50650;48.180;11.524;2023-03-20T04:06:12;2.30;;;1.00;;
64313;SDS011;50650;48.180;11.524;2023-03-20T04:08:40;4.30;;;1.20;;
64313;SDS011;50650;48.180;11.524;2023-03-20T04:11:07;3.00;;;1.05;;
64313;SDS011;50650;48.180;11.524;2023-03-20T04:13:35;1.67;;;0.93;;
64313;SDS011;50650;48.180;11.524;2023-03-20T04:16:02;2.45;;;0.98;;
64313;SDS011;50650;48.180;11.524;2023-03-20T04:18:28;3.80;;;0.90;;
64313;SDS011;50650;48.180;11.524;2023-03-20T04:20:55;1.67;;;1.00;;
64313;SDS011;50650;48.180;11.524;2023-03-20T04:23:21;2.40;;;0.80;;
64313;SDS011;50650;48.180;11.524;2023-03-20T04:25:48;1.23;;;0.82;;
64313;SDS011;50650;48.180;11.524;2023-03-20T04:28:14;2.53;;;1.08;;
64313;SDS011;50650;48.180;11.524;2023-03-20T04:30:42;1.38;;;0.90;;
64313;SDS011;50650;48.180;11.524;2023-03-20T04:33:12;1.65;;;0.90;;
64313;SDS011;50650;48.180;11.524;2023-03-20T04:35:38;1.85;;;1.15;;
64313;SDS011;50650;48.180;11.524;2023-03-20T04:38:05;1.88;;;1.15;;
64313;SDS011;50650;48.180;11.524;2023-03-20T04:40:32;1.92;;;1.00;;
64313;SDS011;50650;48.180;11.524;2023-03-20T04:42:59;1.27;;;0.90;;
64313;SDS011;50650;48.180;11.524;2023-03-20T04:45:25;1.45;;;0.88;;
64313;SDS011;50650;48.180;11.524;2023-03-20T04:47:53;5.00;;;1.15;;
64313;SDS011;50650;48.180;11.524;2023-03-20T04:50:20;2.20;;;0.98;;
64313;SDS011;50650;48.180;11.524;2023-03-20T04:52:46;2.00;;;1.20;;
64313;SDS011;50650;48.180;11.524;2023-03-20T04:55:13;4.80;;;1.15;;
64313;SDS011;50650;48.180;11.524;2023-03-20T04:57:40;3.45;;;1.67;;
64313;SDS011;50650;48.180;11.524;2023-03-20T05:00:07;2.00;;;1.30;;
64313;SDS011;50650;48.180;11.524;2023-03-20T05:02:34;1.77;;;1.40;;
64313;SDS011;50650;48.180;11.524;2023-03-20T05:05:01;1.90;;;1.30;;
64313;SDS011;50650;48.180;11.524;2023-03-20T05:07:28;1.83;;;1.17;;
64313;SDS011;50650;48.180;11.524;2023-03-20T05:09:55;2.10;;;1.48;;
64313;SDS011;50650;48.180;11.524;2023-03-20T05:12:21;2.30;;;1.80;;
64313;SDS011;50650;48.180;11.524;2023-03-20T05:14:47;2.38;;;1.73;;
64313;SDS011;50650;48.180;11.524;2023-03-20T05:17:14;2.83;;;1.70;;
64313;SDS011;50650;48.180;11.524;2023-03-20T05:19:42;4.18;;;2.15;;
64313;SDS011;50650;48.180;11.524;2023-03-20T05:22:10;3.15;;;1.90;;
64313;SDS011;50650;48.180;11.524;2023-03-20T05:24:36;1.88;;;1.70;;
64313;SDS011;50650;48.180;11.524;2023-03-20T05:27:02;2.72;;;1.60;;
64313;SDS011;50650;48.180;11.524;2023-03-20T05:29:29;2.50;;;1.75;;
64313;SDS011;50650;48.180;11.524;2023-03-20T05:31:56;2.55;;;1.90;;
64313;SDS011;50650;48.180;11.524;2023-03-20T05:34:22;2.85;;;1.80;;
64313;SDS011;50650;48.180;11.524;2023-03-20T05:36:48;3.65;;;1.95;;
64313;SDS011;50650;48.180;11.524;2023-03-20T05:39:16;3.33;;;1.95;;
64313;SDS011;50650;48.180;11.524;2023-03-20T05:41:43;3.80;;;2.60;;
64313;SDS011;50650;48.180;11.524;2023-03-20T05:44:09;2.75;;;2.03;;
64313;SDS011;50650;48.180;11.524;2023-03-20T05:46:36;6.43;;;2.35;;
64313;SDS011;50650;48.180;11.524;2023-03-20T05:49:02;3.05;;;2.42;;
64313;SDS011;50650;48.180;11.524;2023-03-20T05:51:29;3.25;;;2.22;;
64313;SDS011;50650;48.180;11.524;2023-03-20T05:53:55;4.32;;;2.97;;
64313;SDS011;50650;48.180;11.524;2023-03-20T05:56:23;5.95;;;2.53;;
64313;SDS011;50650;48.180;11.524;2023-03-20T05:58:50;4.40;;;2.72;;
64313;SDS011;50650;48.180;11.524;2023-03-20T06:01:16;5.07;;;2.83;;
64313;SDS011;50650;48.180;11.524;2023-03-20T06:03:45;4.28;;;2.88;;
64313;SDS011;50650;48.180;11.524;2023-03-20T06:06:12;5.65;;;3.00;;
64313;SDS011;50650;48.180;11.524;2023-03-20T06:08:38;4.00;;;2.95;;
64313;SDS011;50650;48.180;11.524;2023-03-20T06:11:05;3.70;;;3.08;;
64313;SDS011;50650;48.180;11.524;2023-03-20T06:13:33;5.03;;;3.15;;
64313;SDS011;50650;48.180;11.524;2023-03-20T06:15:59;7.60;;;3.88;;
64313;SDS011;50650;48.180;11.524;2023-03-20T06:18:26;5.68;;;3.85;;
64313;SDS011;50650;48.180;11.524;2023-03-20T06:20:52;4.57;;;3.10;;
64313;SDS011;50650;48.180;11.524;2023-03-20T06:23:19;4.85;;;3.28;;
64313;SDS011;50650;48.180;11.524;2023-03-20T06:25:46;4.65;;;3.60;;
64313;SDS011;50650;48.180;11.524;2023-03-20T06:28:12;4.25;;;3.53;;
64313;SDS011;50650;48.180;11.524;2023-03-20T06:30:40;7.30;;;3.63;;
64313;SDS011;50650;48.180;11.524;2023-03-20T06:33:07;3.78;;;3.40;;
64313;SDS011;50650;48.180;11.524;2023-03-20T06:35:34;4.07;;;3.33;;
64313;SDS011;50650;48.180;11.524;2023-03-20T06:38:00;4.82;;;3.80;;
64313;SDS011;50650;48.180;11.524;2023-03-20T06:40:27;4.13;;;3.63;;
64313;SDS011;50650;48.180;11.524;2023-03-20T06:42:53;6.65;;;3.63;;
64313;SDS011;50650;48.180;11.524;2023-03-20T06:45:20;4.30;;;3.50;;
64313;SDS011;50650;48.180;11.524;2023-03-20T06:47:48;5.82;;;4.28;;
64313;SDS011;50650;48.180;11.524;2023-03-20T06:50:15;6.38;;;3.50;;
64313;SDS011;50650;48.180;11.524;2023-03-20T06:52:41;6.22;;;3.80;;
64313;SDS011;50650;48.180;11.524;2023-03-20T06:55:08;4.88;;;4.13;;
64313;SDS011;50650;48.180;11.524;2023-03-20T06:57:35;4.75;;;3.40;;
64313;SDS011;50650;48.180;11.524;2023-03-20T07:00:02;4.55;;;3.90;;
64313;SDS011;50650;48.180;11.524;2023-03-20T07:02:29;5.07;;;3.80;;
64313;SDS011;50650;48.180;11.524;2023-03-20T07:04:57;6.00;;;4.05;;
64313;SDS011;50650;48.180;11.524;2023-03-20T07:07:23;4.95;;;3.67;;
64313;SDS011;50650;48.180;11.524;2023-03-20T07:09:50;5.22;;;3.33;;
64313;SDS011;50650;48.180;11.524;2023-03-20T07:12:16;4.22;;;3.55;;
64313;SDS011;50650;48.180;11.524;2023-03-20T07:14:44;5.25;;;4.13;;
64313;SDS011;50650;48.180;11.524;2023-03-20T07:17:11;6.40;;;4.10;;
64313;SDS011;50650;48.180;11.524;2023-03-20T07:19:38;4.20;;;3.40;;
64313;SDS011;50650;48.180;11.524;2023-03-20T07:22:07;4.93;;;3.55;;
64313;SDS011;50650;48.180;11.524;2023-03-20T07:24:34;4.93;;;3.47;;
64313;SDS011;50650;48.180;11.524;2023-03-20T07:27:01;4.65;;;3.45;;
64313;SDS011;50650;48.180;11.524;2023-03-20T07:29:27;6.00;;;3.80;;
64313;SDS011;50650;48.180;11.524;2023-03-20T07:31:54;5.32;;;3.55;;
64313;SDS011;50650;48.180;11.524;2023-03-20T07:34:21;5.63;;;3.47;;
64313;SDS011;50650;48.180;11.524;2023-03-20T07:36:47;9.27;;;3.70;;
64313;SDS011;50650;48.180;11.524;2023-03-20T07:39:15;3.53;;;3.22;;
64313;SDS011;50650;48.180;11.524;2023-03-20T07:41:41;4.35;;;3.38;;
64313;SDS011;50650;48.180;11.524;2023-03-20T07:44:08;5.25;;;3.53;;
64313;SDS011;50650;48.180;11.524;2023-03-20T07:46:34;4.70;;;3.47;;
64313;SDS011;50650;48.180;11.524;2023-03-20T07:49:01;5.10;;;3.75;;
64313;SDS011;50650;48.180;11.524;2023-03-20T07:51:27;4.38;;;3.05;;
64313;SDS011;50650;48.180;11.524;2023-03-20T07:53:54;4.90;;;3.03;;
64313;SDS011;50650;48.180;11.524;2023-03-20T07:56:21;4.15;;;3.58;;
64313;SDS011;50650;48.180;11.524;2023-03-20T07:58:48;4.32;;;3.13;;
64313;SDS011;50650;48.180;11.524;2023-03-20T08:01:15;4.80;;;3.38;;
64313;SDS011;50650;48.180;11.524;2023-03-20T08:03:41;5.10;;;3.30;;
64313;SDS011;50650;48.180;11.524;2023-03-20T08:06:08;3.60;;;3.30;;
64313;SDS011;50650;48.180;11.524;2023-03-20T08:08:35;6.22;;;2.58;;
64313;SDS011;50650;48.180;11.524;2023-03-20T08:11:01;4.43;;;2.85;;
64313;SDS011;50650;48.180;11.524;2023-03-20T08:13:29;6.47;;;2.80;;
64313;SDS011;50650;48.180;11.524;2023-03-20T08:15:55;4.10;;;2.70;;
64313;SDS011;50650;48.180;11.524;2023-03-20T08:18:22;5.68;;;2.67;;
64313;SDS011;50650;48.180;11.524;2023-03-20T08:20:49;2.67;;;1.92;;
64313;SDS011;50650;48.180;11.524;2023-03-20T08:23:16;4.18;;;2.50;;
64313;SDS011;50650;48.180;11.524;2023-03-20T08:25:45;2.72;;;2.08;;
64313;SDS011;50650;48.180;11.524;2023-03-20T08:28:12;3.97;;;2.50;;
64313;SDS011;50650;48.180;11.524;2023-03-20T08:30:40;3.85;;;2.60;;
64313;SDS011;50650;48.180;11.524;2023-03-20T08:33:07;3.42;;;2.10;;
64313;SDS011;50650;48.180;11.524;2023-03-20T08:35:33;3.13;;;2.20;;
64313;SDS011;50650;48.180;11.524;2023-03-20T08:38:00;4.07;;;2.38;;
64313;SDS011;50650;48.180;11.524;2023-03-20T08:40:26;3.10;;;2.33;;
64313;SDS011;50650;48.180;11.524;2023-03-20T08:42:56;2.70;;;2.03;;
64313;SDS011;50650;48.180;11.524;2023-03-20T08:45:25;3.22;;;2.35;;
64313;SDS011;50650;48.180;11.524;2023-03-20T08:47:56;2.40;;;1.90;;
64313;SDS011;50650;48.180;11.524;2023-03-20T08:50:22;4.60;;;2.00;;
64313;SDS011;50650;48.180;11.524;2023-03-20T08:52:49;2.38;;;1.70;;
64313;SDS011;50650;48.180;11.524;2023-03-20T08:55:16;3.03;;;1.90;;
64313;SDS011;50650;48.180;11.524;2023-03-20T08:57:43;2.88;;;1.80;;
64313;SDS011;50650;48.180;11.524;2023-03-20T09:00:11;2.20;;;1.60;;
64313;SDS011;50650;48.180;11.524;2023-03-20T09:02:39;1.80;;;1.58;;
64313;SDS011;50650;48.180;11.524;2023-03-20T09:05:08;2.40;;;1.50;;
64313;SDS011;50650;48.180;11.524;2023-03-20T09:07:35;2.20;;;1.60;;
64313;SDS011;50650;48.180;11.524;2023-03-20T09:10:02;2.60;;;1.80;;
64313;SDS011;50650;48.180;11.524;2023-03-20T09:12:28;2.53;;;1.50;;
64313;SDS011;50650;48.180;11.524;2023-03-20T09:14:56;2.58;;;1.70;;
64313;SDS011;50650;48.180;11.524;2023-03-20T09:17:23;1.70;;;1.50;;
64313;SDS011;50650;48.180;11.524;2023-03-20T09:19:50;3.83;;;1.83;;
64313;SDS011;50650;48.180;11.524;2023-03-20T09:22:18;2.10;;;1.48;;
64313;SDS011;50650;48.180;11.524;2023-03-20T09:24:44;1.92;;;1.70;;
64313;SDS011;50650;48.180;11.524;2023-03-20T09:27:11;2.08;;;1.60;;
64313;SDS011;50650;48.180;11.524;2023-03-20T09:29:38;2.15;;;1.50;;
64313;SDS011;50650;48.180;11.524;2023-03-20T09:32:05;4.85;;;1.35;;
64313;SDS011;50650;48.180;11.524;2023-03-20T09:34:32;4.13;;;1.92;;
64313;SDS011;50650;48.180;11.524;2023-03-20T09:36:58;1.92;;;1.45;;
64313;SDS011;50650;48.180;11.524;2023-03-20T09:39:28;3.95;;;1.67;;
64313;SDS011;50650;48.180;11.524;2023-03-20T09:41:55;4.07;;;1.20;;
64313;SDS011;50650;48.180;11.524;2023-03-20T09:44:31;2.25;;;1.30;;
64313;SDS011;50650;48.180;11.524;2023-03-20T09:47:07;1.95;;;1.45;;
64313;SDS011;50650;48.180;11.524;2023-03-20T09:49:44;2.58;;;1.60;;
64313;SDS011;50650;48.180;11.524;2023-03-20T09:52:17;5.03;;;1.70;;
64313;SDS011;50650;48.180;11.524;2023-03-20T09:54:48;3.95;;;1.60;;
64313;SDS011;50650;48.180;11.524;2023-03-20T09:57:18;4.85;;;1.30;;
64313;SDS011;50650;48.180;11.524;2023-03-20T09:59:47;1.85;;;1.70;;
64313;SDS011;50650;48.180;11.524;2023-03-20T10:02:14;2.00;;;1.33;;
64313;SDS011;50650;48.180;11.524;2023-03-20T10:04:48;2.28;;;1.63;;
64313;SDS011;50650;48.180;11.524;2023-03-20T10:07:15;2.00;;;1.60;;
64313;SDS011;50650;48.180;11.524;2023-03-20T10:09:42;1.98;;;1.20;;
64313;SDS011;50650;48.180;11.524;2023-03-20T10:12:21;5.18;;;1.27;;
64313;SDS011;50650;48.180;11.524;2023-03-20T10:14:56;1.75;;;1.35;;
64313;SDS011;50650;48.180;11.524;2023-03-20T10:17:28;2.65;;;1.50;;
64313;SDS011;50650;48.180;11.524;2023-03-20T10:20:01;2.95;;;1.40;;
64313;SDS011;50650;48.180;11.524;2023-03-20T10:22:34;2.88;;;1.23;;
64313;SDS011;50650;48.180;11.524;2023-03-20T10:25:05;1.50;;;1.10;;
64313;SDS011;50650;48.180;11.524;2023-03-20T10:27:36;2.10;;;1.25;;
64313;SDS011;50650;48.180;11.524;2023-03-20T10:30:11;2.03;;;1.30;;
64313;SDS011;50650;48.180;11.524;2023-03-20T10:32:59;2.58;;;0.90;;
64313;SDS011;50650;48.180;11.524;2023-03-20T10:35:33;2.03;;;0.90;;
64313;SDS011;50650;48.180;11.524;2023-03-20T10:38:08;2.28;;;1.00;;
64313;SDS011;50650;48.180;11.524;2023-03-20T10:40:40;3.28;;;0.90;;
64313;SDS011;50650;48.180;11.524;2023-03-20T10:43:10;3.10;;;1.00;;
64313;SDS011;50650;48.180;11.524;2023-03-20T10:45:41;2.50;;;0.75;;
64313;SDS011;50650;48.180;11.524;2023-03-20T10:48:12;4.13;;;0.73;;
64313;SDS011;50650;48.180;11.524;2023-03-20T10:50:42;1.05;;;0.73;;
64313;SDS011;50650;48.180;11.524;2023-03-20T10:53:14;3.47;;;0.88;;
64313;SDS011;50650;48.180;11.524;2023-03-20T10:55:46;0.77;;;0.60;;
64313;SDS011;50650;48.180;11.524;2023-03-20T10:58:17;1.08;;;0.65;;
64313;SDS011;50650;48.180;11.524;2023-03-20T11:00:46;1.15;;;0.57;;
64313;SDS011;50650;48.180;11.524;2023-03-20T11:03:16;0.93;;;0.63;;
64313;SDS011;50650;48.180;11.524;2023-03-20T11:05:48;2.03;;;0.75;;
64313;SDS011;50650;48.180;11.524;2023-03-20T11:08:21;0.93;;;0.68;;
64313;SDS011;50650;48.180;11.524;2023-03-20T11:10:56;1.70;;;0.57;;
64313;SDS011;50650;48.180;11.524;2023-03-20T11:13:26;2.42;;;0.60;;
64313;SDS011;50650;48.180;11.524;2023-03-20T11:15:56;5.32;;;0.65;;
64313;SDS011;50650;48.180;11.524;2023-03-20T11:18:23;3.75;;;0.60;;
64313;SDS011;50650;48.180;11.524;2023-03-20T11:20:51;5.88;;;0.82;;
64313;SDS011;50650;48.180;11.524;2023-03-20T11:23:22;1.40;;;0.70;;
64313;SDS011;50650;48.180;11.524;2023-03-20T11:25:51;0.65;;;0.50;;
64313;SDS011;50650;48.180;11.524;2023-03-20T11:28:19;1.00;;;0.68;;
64313;SDS011;50650;48.180;11.524;2023-03-20T11:30:48;0.70;;;0.57;;
64313;SDS011;50650;48.180;11.524;2023-03-20T11:33:15;4.55;;;1.05;;
64313;SDS011;50650;48.180;11.524;2023-03-20T11:35:44;0.77;;;0.60;;
64313;SDS011;50650;48.180;11.524;2023-03-20T11:38:12;0.80;;;0.47;;
64313;SDS011;50650;48.180;11.524;2023-03-20T11:40:40;0.73;;;0.60;;
64313;SDS011;50650;48.180;11.524;2023-03-20T11:43:09;0.77;;;0.70;;
64313;SDS011;50650;48.180;11.524;2023-03-20T11:45:37;1.58;;;0.65;;
64313;SDS011;50650;48.180;11.524;2023-03-20T11:48:09;0.77;;;0.60;;
64313;SDS011;50650;48.180;11.524;2023-03-20T11:50:41;0.93;;;0.70;;
64313;SDS011;50650;48.180;11.524;2023-03-20T11:53:16;0.90;;;0.60;;
64313;SDS011;50650;48.180;11.524;2023-03-20T11:55:56;1.23;;;0.55;;
64313;SDS011;50650;48.180;11.524;2023-03-20T11:58:28;0.70;;;0.60;;
64313;SDS011;50650;48.180;11.524;2023-03-20T12:00:55;4.88;;;0.90;;
64313;SDS011;50650;48.180;11.524;2023-03-20T12:03:39;3.00;;;1.00;;
64313;SDS011;50650;48.180;11.524;2023-03-20T12:06:12;1.45;;;1.00;;
64313;SDS011;50650;48.180;11.524;2023-03-20T12:08:41;3.78;;;0.82;;
64313;SDS011;50650;48.180;11.524;2023-03-20T12:11:14;1.92;;;0.52;;
64313;SDS011;50650;48.180;11.524;2023-03-20T12:13:46;1.77;;;1.00;;
64313;SDS011;50650;48.180;11.524;2023-03-20T12:16:15;1.23;;;0.60;;
64313;SDS011;50650;48.180;11.524;2023-03-20T12:18:45;1.67;;;0.80;;
64313;SDS011;50650;48.180;11.524;2023-03-20T12:21:14;0.90;;;0.80;;
64313;SDS011;50650;48.180;11.524;2023-03-20T12:23:44;0.75;;;0.60;;
64313;SDS011;50650;48.180;11.524;2023-03-20T12:26:17;4.45;;;0.90;;
64313;SDS011;50650;48.180;11.524;2023-03-20T12:28:46;1.30;;;0.90;;
64313;SDS011;50650;48.180;11.524;2023-03-20T12:31:19;2.08;;;0.85;;
64313;SDS011;50650;48.180;11.524;2023-03-20T12:33:51;3.97;;;0.90;;
64313;SDS011;50650;48.180;11.524;2023-03-20T12:36:22;4.28;;;0.98;;
64313;SDS011;50650;48.180;11.524;2023-03-20T12:38:51;1.00;;;0.90;;
64313;SDS011;50650;48.180;11.524;2023-03-20T12:41:18;1.30;;;0.90;;
64313;SDS011;50650;48.180;11.524;2023-03-20T12:46:50;1.35;;;1.00;;
64313;SDS011;50650;48.180;11.524;2023-03-20T12:49:25;1.15;;;1.00;;
64313;SDS011;50650;48.180;11.524;2023-03-20T12:51:58;2.70;;;0.80;;
64313;SDS011;50650;48.180;11.524;2023-03-20T12:54:55;4.05;;;1.02;;
64313;SDS011;50650;48.180;11.524;2023-03-20T12:57:30;1.95;;;0.65;;
64313;SDS011;50650;48.180;11.524;2023-03-20T13:00:08;5.88;;;0.82;;
64313;SDS011;50650;48.180;11.524;2023-03-20T13:02:46;0.75;;;0.60;;
64313;SDS011;50650;48.180;11.524;2023-03-20T13:05:27;2.95;;;0.80;;
64313;SDS011;50650;48.180;11.524;2023-03-20T13:08:02;1.27;;;0.80;;
64313;SDS011;50650;48.180;11.524;2023-03-20T13:10:36;1.58;;;0.70;;
64313;SDS011;50650;48.180;11.524;2023-03-20T13:13:06;1.08;;;0.98;;
64313;SDS011;50650;48.180;11.524;2023-03-20T13:15:47;4.32;;;0.70;;
64313;SDS011;50650;48.180;11.524;2023-03-20T13:18:17;1.15;;;0.73;;
64313;SDS011;50650;48.180;11.524;2023-03-20T13:20:49;1.23;;;0.77;;
64313;SDS011;50650;48.180;11.524;2023-03-20T13:23:18;1.40;;;0.90;;
64313;SDS011;50650;48.180;11.524;2023-03-20T13:25:56;1.55;;;0.73;;
64313;SDS011;50650;48.180;11.524;2023-03-20T13:28:32;3.97;;;0.70;;
64313;SDS011;50650;48.180;11.524;2023-03-20T13:31:04;2.33;;;0.70;;
64313;SDS011;50650;48.180;11.524;2023-03-20T13:33:37;1.67;;;0.80;;
64313;SDS011;50650;48.180;11.524;2023-03-20T13:36:15;1.08;;;0.80;;
64313;SDS011;50650;48.180;11.524;2023-03-20T13:38:51;1.10;;;0.85;;
64313;SDS011;50650;48.180;11.524;2023-03-20T13:41:20;2.58;;;1.10;;
64313;SDS011;50650;48.180;11.524;2023-03-20T13:43:51;1.63;;;0.82;;
64313;SDS011;50650;48.180;11.524;2023-03-20T13:46:21;1.08;;;0.82;;
64313;SDS011;50650;48.180;11.524;2023-03-20T13:48:50;1.13;;;0.82;;
64313;SDS011;50650;48.180;11.524;2023-03-20T13:51:23;0.98;;;0.70;;
64313;SDS011;50650;48.180;11.524;2023-03-20T13:53:59;1.30;;;0.70;;
64313;SDS011;50650;48.180;11.524;2023-03-20T13:56:31;1.92;;;0.90;;
64313;SDS011;50650;48.180;11.524;2023-03-20T13:59:15;1.13;;;0.63;;
64313;SDS011;50650;48.180;11.524;2023-03-20T14:01:59;0.55;;;0.50;;
64313;SDS011;50650;48.180;11.524;2023-03-20T14:04:32;1.15;;;0.70;;
64313;SDS011;50650;48.180;11.524;2023-03-20T14:07:01;0.88;;;0.60;;
64313;SDS011;50650;48.180;11.524;2023-03-20T14:09:52;1.67;;;0.85;;
64313;SDS011;50650;48.180;11.524;2023-03-20T14:12:19;1.73;;;0.70;;
64313;SDS011;50650;48.180;11.524;2023-03-20T14:14:51;1.42;;;0.75;;
64313;SDS011;50650;48.180;11.524;2023-03-20T14:17:19;0.70;;;0.68;;
64313;SDS011;50650;48.180;11.524;2023-03-20T14:19:47;1.10;;;0.70;;
64313;SDS011;50650;48.180;11.524;2023-03-20T14:22:17;1.05;;;0.82;;
64313;SDS011;50650;48.180;11.524;2023-03-20T14:24:50;1.38;;;0.75;;
64313;SDS011;50650;48.180;11.524;2023-03-20T14:27:20;1.42;;;0.88;;
64313;SDS011;50650;48.180;11.524;2023-03-20T14:29:47;1.20;;;0.75;;
64313;SDS011;50650;48.180;11.524;2023-03-20T14:32:21;1.25;;;1.10;;
64313;SDS011;50650;48.180;11.524;2023-03-20T14:34:57;1.52;;;0.80;;
64313;SDS011;50650;48.180;11.524;2023-03-20T14:37:29;2.47;;;1.10;;
64313;SDS011;50650;48.180;11.524;2023-03-20T14:40:02;3.60;;;1.02;;
64313;SDS011;50650;48.180;11.524;2023-03-20T14:42:38;3.97;;;1.20;;
64313;SDS011;50650;48.180;11.524;2023-03-20T14:47:55;0.80;;;0.68;;
64313;SDS011;50650;48.180;11.524;2023-03-20T14:50:26;1.95;;;0.93;;
64313;SDS011;50650;48.180;11.524;2023-03-20T14:53:00;2.70;;;0.98;;
64313;SDS011;50650;48.180;11.524;2023-03-20T14:55:33;1.92;;;1.00;;
64313;SDS011;50650;48.180;11.524;2023-03-20T14:58:33;1.70;;;0.95;;